sensor_id;sensor_type;location;lat;lon;timestamp;temperature;humidity
45115;DHT22;30877;43.706;10.780;2023-08-21T00:00:05;30.60;96.70
45115;DHT22;30877;43.706;10.780;2023-08-21T00:02:34;30.60;96.70
45115;DHT22;30877;43.706;10.780;2023-08-21T00:05:03;30.50;96.70
45115;DHT22;30877;43.706;10.780;2023-08-21T00:07:31;30.50;96.70
45115;DHT22;30877;43.706;10.780;2023-08-21T00:10:00;30.50;96.70
45115;DHT22;30877;43.706;10.780;2023-08-21T00:12:29;30.40;96.70
45115;DHT22;30877;43.706;10.780;2023-08-21T00:14:59;30.40;96.70
45115;DHT22;30877;43.706;10.780;2023-08-21T00:17:27;30.40;96.70
45115;DHT22;30877;43.706;10.780;2023-08-21T00:19:56;30.40;96.70
45115;DHT22;30877;43.706;10.780;2023-08-21T00:22:25;30.50;96.70
45115;DHT22;30877;43.706;10.780;2023-08-21T00:24:53;30.50;96.70
45115;DHT22;30877;43.706;10.780;2023-08-21T00:27:22;30.40;96.70
45115;DHT22;30877;43.706;10.780;2023-08-21T00:29:50;30.40;96.70
45115;DHT22;30877;43.706;10.780;2023-08-21T00:32:20;30.50;96.70
45115;DHT22;30877;43.706;10.780;2023-08-21T00:34:48;30.50;96.70
45115;DHT22;30877;43.706;10.780;2023-08-21T00:37:17;30.50;96.70
45115;DHT22;30877;43.706;10.780;2023-08-21T00:39:45;30.40;96.70
45115;DHT22;30877;43.706;10.780;2023-08-21T00:42:14;30.40;96.70
45115;DHT22;30877;43.706;10.780;2023-08-21T00:44:42;30.40;96.70
45115;DHT22;30877;43.706;10.780;2023-08-21T00:47:10;30.40;96.70
45115;DHT22;30877;43.706;10.780;2023-08-21T00:49:40;30.30;96.70
45115;DHT22;30877;43.706;10.780;2023-08-21T00:52:11;30.20;96.70
45115;DHT22;30877;43.706;10.780;2023-08-21T00:54:40;29.90;96.70
45115;DHT22;30877;43.706;10.780;2023-08-21T00:57:10;29.90;96.70
45115;DHT22;30877;43.706;10.780;2023-08-21T00:59:38;29.90;96.70
45115;DHT22;30877;43.706;10.780;2023-08-21T01:02:07;30.00;96.70
45115;DHT22;30877;43.706;10.780;2023-08-21T01:04:35;30.00;96.70
45115;DHT22;30877;43.706;10.780;2023-08-21T01:07:05;30.00;96.70
45115;DHT22;30877;43.706;10.780;2023-08-21T01:09:44;30.00;96.70
45115;DHT22;30877;43.706;10.780;2023-08-21T01:12:22;29.90;96.70
45115;DHT22;30877;43.706;10.780;2023-08-21T01:14:57;29.90;96.70
45115;DHT22;30877;43.706;10.780;2023-08-21T01:17:27;29.80;96.70
45115;DHT22;30877;43.706;10.780;2023-08-21T01:19:56;29.70;96.70
45115;DHT22;30877;43.706;10.780;2023-08-21T01:22:36;29.70;96.70
45115;DHT22;30877;43.706;10.780;2023-08-21T01:25:07;29.80;96.70
45115;DHT22;30877;43.706;10.780;2023-08-21T01:27:43;29.70;96.70
45115;DHT22;30877;43.706;10.780;2023-08-21T01:30:12;29.70;96.70
45115;DHT22;30877;43.706;10.780;2023-08-21T01:32:53;29.70;96.70
45115;DHT22;30877;43.706;10.780;2023-08-21T01:35:28;29.60;96.70
45115;DHT22;30877;43.706;10.780;2023-08-21T01:37:58;29.60;96.70
45115;DHT22;30877;43.706;10.780;2023-08-21T01:40:29;29.60;96.70
45115;DHT22;30877;43.706;10.780;2023-08-21T01:42:59;29.60;96.70
45115;DHT22;30877;43.706;10.780;2023-08-21T01:45:28;29.60;96.70
45115;DHT22;30877;43.706;10.780;2023-08-21T01:47:56;29.50;96.70
45115;DHT22;30877;43.706;10.780;2023-08-21T01:50:24;29.50;96.70
45115;DHT22;30877;43.706;10.780;2023-08-21T01:52:54;29.50;96.70
45115;DHT22;30877;43.706;10.780;2023-08-21T01:55:23;29.50;96.70
45115;DHT22;30877;43.706;10.780;2023-08-21T01:57:52;29.40;96.70
45115;DHT22;30877;43.706;10.780;2023-08-21T02:00:21;29.30;96.70
45115;DHT22;30877;43.706;10.780;2023-08-21T02:02:49;29.20;96.70
45115;DHT22;30877;43.706;10.780;2023-08-21T02:05:18;29.20;96.70
45115;DHT22;30877;43.706;10.780;2023-08-21T02:07:46;29.30;96.70
45115;DHT22;30877;43.706;10.780;2023-08-21T02:10:16;29.20;96.70
45115;DHT22;30877;43.706;10.780;2023-08-21T02:12:44;28.70;96.70
45115;DHT22;30877;43.706;10.780;2023-08-21T02:15:15;28.50;96.70
45115;DHT22;30877;43.706;10.780;2023-08-21T02:17:44;28.50;96.70
45115;DHT22;30877;43.706;10.780;2023-08-21T02:20:13;28.50;96.70
45115;DHT22;30877;43.706;10.780;2023-08-21T02:22:41;28.60;96.70
45115;DHT22;30877;43.706;10.780;2023-08-21T02:25:10;28.60;96.70
45115;DHT22;30877;43.706;10.780;2023-08-21T02:27:38;28.60;96.70
45115;DHT22;30877;43.706;10.780;2023-08-21T02:30:08;28.60;96.70
45115;DHT22;30877;43.706;10.780;2023-08-21T02:32:37;28.50;96.70
45115;DHT22;30877;43.706;10.780;2023-08-21T02:35:08;28.30;96.70
45115;DHT22;30877;43.706;10.780;2023-08-21T02:37:37;28.20;96.70
45115;DHT22;30877;43.706;10.780;2023-08-21T02:40:07;28.20;96.70
45115;DHT22;30877;43.706;10.780;2023-08-21T02:42:36;28.20;96.70
45115;DHT22;30877;43.706;10.780;2023-08-21T02:45:06;28.20;96.70
45115;DHT22;30877;43.706;10.780;2023-08-21T02:47:39;28.10;96.70
45115;DHT22;30877;43.706;10.780;2023-08-21T02:50:09;28.20;96.70
45115;DHT22;30877;43.706;10.780;2023-08-21T02:52:38;28.20;96.70
45115;DHT22;30877;43.706;10.780;2023-08-21T02:55:08;28.30;96.70
45115;DHT22;30877;43.706;10.780;2023-08-21T02:57:37;28.30;96.70
45115;DHT22;30877;43.706;10.780;2023-08-21T03:00:06;28.40;96.70
45115;DHT22;30877;43.706;10.780;2023-08-21T03:02:40;28.50;96.70
45115;DHT22;30877;43.706;10.780;2023-08-21T03:05:12;28.50;96.70
45115;DHT22;30877;43.706;10.780;2023-08-21T03:07:42;28.50;96.70
45115;DHT22;30877;43.706;10.780;2023-08-21T03:10:11;28.40;96.70
45115;DHT22;30877;43.706;10.780;2023-08-21T03:12:40;28.30;96.70
45115;DHT22;30877;43.706;10.780;2023-08-21T03:15:09;28.20;96.70
45115;DHT22;30877;43.706;10.780;2023-08-21T03:17:37;28.20;96.70
45115;DHT22;30877;43.706;10.780;2023-08-21T03:20:08;28.20;96.70
45115;DHT22;30877;43.706;10.780;2023-08-21T03:22:36;28.30;96.70
45115;DHT22;30877;43.706;10.780;2023-08-21T03:25:06;28.20;96.70
45115;DHT22;30877;43.706;10.780;2023-08-21T03:27:35;28.20;96.70
45115;DHT22;30877;43.706;10.780;2023-08-21T03:30:07;28.20;96.70
45115;DHT22;30877;43.706;10.780;2023-08-21T03:32:37;28.20;96.70
45115;DHT22;30877;43.706;10.780;2023-08-21T03:35:08;28.20;96.70
45115;DHT22;30877;43.706;10.780;2023-08-21T03:37:36;28.30;96.70
45115;DHT22;30877;43.706;10.780;2023-08-21T03:40:07;28.10;96.70
45115;DHT22;30877;43.706;10.780;2023-08-21T03:42:36;28.00;96.70
45115;DHT22;30877;43.706;10.780;2023-08-21T03:45:05;28.10;96.70
45115;DHT22;30877;43.706;10.780;2023-08-21T03:47:34;28.10;96.70
45115;DHT22;30877;43.706;10.780;2023-08-21T03:50:10;28.00;96.70
45115;DHT22;30877;43.706;10.780;2023-08-21T03:52:38;27.90;96.70
45115;DHT22;30877;43.706;10.780;2023-08-21T03:55:08;27.80;96.70
45115;DHT22;30877;43.706;10.780;2023-08-21T03:57:36;27.80;96.70
45115;DHT22;30877;43.706;10.780;2023-08-21T04:00:06;27.70;96.70
45115;DHT22;30877;43.706;10.780;2023-08-21T04:02:41;27.80;96.70
45115;DHT22;30877;43.706;10.780;2023-08-21T04:05:11;27.90;96.70
45115;DHT22;30877;43.706;10.780;2023-08-21T04:07:40;27.70;96.70
45115;DHT22;30877;43.706;10.780;2023-08-21T04:10:08;27.60;96.70
45115;DHT22;30877;43.706;10.780;2023-08-21T04:12:36;27.60;96.70
45115;DHT22;30877;43.706;10.780;2023-08-21T04:15:06;27.60;96.70
45115;DHT22;30877;43.706;10.780;2023-08-21T04:17:35;27.60;96.70
45115;DHT22;30877;43.706;10.780;2023-08-21T04:20:04;27.40;96.70
45115;DHT22;30877;43.706;10.780;2023-08-21T04:22:36;27.70;96.70
45115;DHT22;30877;43.706;10.780;2023-08-21T04:25:05;27.60;96.70
45115;DHT22;30877;43.706;10.780;2023-08-21T04:27:34;27.30;96.70
45115;DHT22;30877;43.706;10.780;2023-08-21T04:30:04;27.20;96.70
45115;DHT22;30877;43.706;10.780;2023-08-21T04:32:32;27.40;96.70
45115;DHT22;30877;43.706;10.780;2023-08-21T04:35:01;27.30;96.70
45115;DHT22;30877;43.706;10.780;2023-08-21T04:37:29;27.30;96.70
45115;DHT22;30877;43.706;10.780;2023-08-21T04:39:59;27.30;96.70
45115;DHT22;30877;43.706;10.780;2023-08-21T04:42:27;27.50;96.70
45115;DHT22;30877;43.706;10.780;2023-08-21T04:44:56;27.50;96.70
45115;DHT22;30877;43.706;10.780;2023-08-21T04:47:26;27.50;96.70
45115;DHT22;30877;43.706;10.780;2023-08-21T04:49:58;27.40;96.70
45115;DHT22;30877;43.706;10.780;2023-08-21T04:52:28;27.10;96.70
45115;DHT22;30877;43.706;10.780;2023-08-21T04:54:58;27.20;96.70
45115;DHT22;30877;43.706;10.780;2023-08-21T04:57:28;27.20;96.70
45115;DHT22;30877;43.706;10.780;2023-08-21T04:59:57;27.40;96.70
45115;DHT22;30877;43.706;10.780;2023-08-21T05:02:34;27.50;96.70
45115;DHT22;30877;43.706;10.780;2023-08-21T05:05:03;27.40;96.70
45115;DHT22;30877;43.706;10.780;2023-08-21T05:07:32;27.40;96.70
45115;DHT22;30877;43.706;10.780;2023-08-21T05:10:03;27.40;96.70
45115;DHT22;30877;43.706;10.780;2023-08-21T05:12:34;27.30;96.70
45115;DHT22;30877;43.706;10.780;2023-08-21T05:15:04;27.40;96.70
45115;DHT22;30877;43.706;10.780;2023-08-21T05:17:32;27.20;96.70
45115;DHT22;30877;43.706;10.780;2023-08-21T05:20:00;27.40;96.70
45115;DHT22;30877;43.706;10.780;2023-08-21T05:22:28;27.30;96.70
45115;DHT22;30877;43.706;10.780;2023-08-21T05:24:57;27.40;96.70
45115;DHT22;30877;43.706;10.780;2023-08-21T05:27:26;27.50;96.70
45115;DHT22;30877;43.706;10.780;2023-08-21T05:29:55;27.60;96.70
45115;DHT22;30877;43.706;10.780;2023-08-21T05:32:23;27.60;96.70
45115;DHT22;30877;43.706;10.780;2023-08-21T05:34:52;27.50;96.70
45115;DHT22;30877;43.706;10.780;2023-08-21T05:37:20;27.20;96.70
45115;DHT22;30877;43.706;10.780;2023-08-21T05:39:49;27.30;96.70
45115;DHT22;30877;43.706;10.780;2023-08-21T05:42:17;27.40;96.70
45115;DHT22;30877;43.706;10.780;2023-08-21T05:44:47;27.40;96.70
45115;DHT22;30877;43.706;10.780;2023-08-21T05:47:16;27.60;96.70
45115;DHT22;30877;43.706;10.780;2023-08-21T05:49:44;27.70;96.70
45115;DHT22;30877;43.706;10.780;2023-08-21T05:52:12;27.70;96.70
45115;DHT22;30877;43.706;10.780;2023-08-21T05:54:41;27.70;96.70
45115;DHT22;30877;43.706;10.780;2023-08-21T05:57:09;27.70;96.70
45115;DHT22;30877;43.706;10.780;2023-08-21T05:59:43;27.70;96.70
45115;DHT22;30877;43.706;10.780;2023-08-21T06:02:14;27.90;96.70
45115;DHT22;30877;43.706;10.780;2023-08-21T06:04:42;28.10;96.70
45115;DHT22;30877;43.706;10.780;2023-08-21T06:07:11;28.10;96.70
45115;DHT22;30877;43.706;10.780;2023-08-21T06:09:39;28.10;96.70
45115;DHT22;30877;43.706;10.780;2023-08-21T06:12:09;28.20;96.70
45115;DHT22;30877;43.706;10.780;2023-08-21T06:14:39;28.20;96.70
45115;DHT22;30877;43.706;10.780;2023-08-21T06:17:09;28.30;96.70
45115;DHT22;30877;43.706;10.780;2023-08-21T06:19:40;28.40;96.70
45115;DHT22;30877;43.706;10.780;2023-08-21T06:22:08;28.50;96.70
45115;DHT22;30877;43.706;10.780;2023-08-21T06:24:36;28.50;96.70
45115;DHT22;30877;43.706;10.780;2023-08-21T06:27:08;28.50;96.70
45115;DHT22;30877;43.706;10.780;2023-08-21T06:29:36;28.50;96.70
45115;DHT22;30877;43.706;10.780;2023-08-21T06:32:08;28.60;96.70
45115;DHT22;30877;43.706;10.780;2023-08-21T06:34:39;28.60;96.70
45115;DHT22;30877;43.706;10.780;2023-08-21T06:37:07;28.60;96.70
45115;DHT22;30877;43.706;10.780;2023-08-21T06:39:35;28.60;96.70
45115;DHT22;30877;43.706;10.780;2023-08-21T06:42:04;28.60;96.70
45115;DHT22;30877;43.706;10.780;2023-08-21T06:44:40;28.70;96.70
45115;DHT22;30877;43.706;10.780;2023-08-21T06:47:08;28.80;96.70
45115;DHT22;30877;43.706;10.780;2023-08-21T06:49:39;28.90;96.70
45115;DHT22;30877;43.706;10.780;2023-08-21T06:52:07;28.90;96.70
45115;DHT22;30877;43.706;10.780;2023-08-21T06:54:35;28.90;96.70
45115;DHT22;30877;43.706;10.780;2023-08-21T06:57:04;29.00;96.70
45115;DHT22;30877;43.706;10.780;2023-08-21T06:59:32;29.00;96.70
45115;DHT22;30877;43.706;10.780;2023-08-21T07:02:03;29.10;96.70
45115;DHT22;30877;43.706;10.780;2023-08-21T07:04:32;29.10;96.70
45115;DHT22;30877;43.706;10.780;2023-08-21T07:07:04;29.10;96.70
45115;DHT22;30877;43.706;10.780;2023-08-21T07:09:33;29.20;96.70
45115;DHT22;30877;43.706;10.780;2023-08-21T07:12:01;29.30;96.70
45115;DHT22;30877;43.706;10.780;2023-08-21T07:14:29;29.40;96.70
45115;DHT22;30877;43.706;10.780;2023-08-21T07:16:57;29.40;96.70
45115;DHT22;30877;43.706;10.780;2023-08-21T07:19:25;29.50;96.70
45115;DHT22;30877;43.706;10.780;2023-08-21T07:21:53;29.50;96.70
45115;DHT22;30877;43.706;10.780;2023-08-21T07:24:22;29.60;96.70
45115;DHT22;30877;43.706;10.780;2023-08-21T07:26:50;29.70;96.70
45115;DHT22;30877;43.706;10.780;2023-08-21T07:29:18;29.70;96.70
45115;DHT22;30877;43.706;10.780;2023-08-21T07:31:46;29.70;96.70
45115;DHT22;30877;43.706;10.780;2023-08-21T07:34:14;29.80;96.70
45115;DHT22;30877;43.706;10.780;2023-08-21T07:36:44;29.90;96.70
45115;DHT22;30877;43.706;10.780;2023-08-21T07:39:12;29.90;96.70
45115;DHT22;30877;43.706;10.780;2023-08-21T07:41:41;30.00;96.70
45115;DHT22;30877;43.706;10.780;2023-08-21T07:44:10;30.00;96.70
45115;DHT22;30877;43.706;10.780;2023-08-21T07:46:38;30.10;96.70
45115;DHT22;30877;43.706;10.780;2023-08-21T07:49:06;30.20;96.70
45115;DHT22;30877;43.706;10.780;2023-08-21T07:51:34;30.20;96.70
45115;DHT22;30877;43.706;10.780;2023-08-21T07:54:02;30.30;96.70
45115;DHT22;30877;43.706;10.780;2023-08-21T07:56:30;30.40;96.70
45115;DHT22;30877;43.706;10.780;2023-08-21T07:59:00;30.40;96.70
45115;DHT22;30877;43.706;10.780;2023-08-21T08:01:29;30.40;96.70
45115;DHT22;30877;43.706;10.780;2023-08-21T08:03:57;30.50;96.70
45115;DHT22;30877;43.706;10.780;2023-08-21T08:06:25;30.70;96.70
45115;DHT22;30877;43.706;10.780;2023-08-21T08:08:53;30.80;96.70
45115;DHT22;30877;43.706;10.780;2023-08-21T08:11:21;30.90;96.70
45115;DHT22;30877;43.706;10.780;2023-08-21T08:13:49;30.90;96.70
45115;DHT22;30877;43.706;10.780;2023-08-21T08:16:19;31.00;96.70
45115;DHT22;30877;43.706;10.780;2023-08-21T08:18:47;31.10;96.70
45115;DHT22;30877;43.706;10.780;2023-08-21T08:21:16;31.20;96.70
45115;DHT22;30877;43.706;10.780;2023-08-21T08:23:45;31.30;96.70
45115;DHT22;30877;43.706;10.780;2023-08-21T08:26:13;31.30;96.70
45115;DHT22;30877;43.706;10.780;2023-08-21T08:28:41;31.30;96.70
45115;DHT22;30877;43.706;10.780;2023-08-21T08:31:15;31.40;96.70
45115;DHT22;30877;43.706;10.780;2023-08-21T08:33:44;31.50;96.70
45115;DHT22;30877;43.706;10.780;2023-08-21T08:36:12;31.60;96.70
45115;DHT22;30877;43.706;10.780;2023-08-21T08:38:40;31.60;96.70
45115;DHT22;30877;43.706;10.780;2023-08-21T08:41:25;31.70;96.70
45115;DHT22;30877;43.706;10.780;2023-08-21T08:43:57;31.70;96.70
45115;DHT22;30877;43.706;10.780;2023-08-21T08:46:28;31.80;96.70
45115;DHT22;30877;43.706;10.780;2023-08-21T08:48:58;31.90;96.70
45115;DHT22;30877;43.706;10.780;2023-08-21T08:51:28;32.00;96.70
45115;DHT22;30877;43.706;10.780;2023-08-21T08:53:58;32.20;96.70
45115;DHT22;30877;43.706;10.780;2023-08-21T08:56:26;32.30;96.70
45115;DHT22;30877;43.706;10.780;2023-08-21T08:58:54;32.40;96.70
45115;DHT22;30877;43.706;10.780;2023-08-21T09:01:22;32.40;96.70
45115;DHT22;30877;43.706;10.780;2023-08-21T09:03:50;32.50;96.70
45115;DHT22;30877;43.706;10.780;2023-08-21T09:06:20;32.70;96.70
45115;DHT22;30877;43.706;10.780;2023-08-21T09:08:54;32.80;96.70
45115;DHT22;30877;43.706;10.780;2023-08-21T09:11:22;32.80;96.70
45115;DHT22;30877;43.706;10.780;2023-08-21T09:13:52;32.80;96.70
45115;DHT22;30877;43.706;10.780;2023-08-21T09:16:20;33.00;96.70
45115;DHT22;30877;43.706;10.780;2023-08-21T09:18:48;33.00;96.70
45115;DHT22;30877;43.706;10.780;2023-08-21T09:21:17;33.00;96.70
45115;DHT22;30877;43.706;10.780;2023-08-21T09:23:47;33.00;96.70
45115;DHT22;30877;43.706;10.780;2023-08-21T09:26:19;33.10;96.70
45115;DHT22;30877;43.706;10.780;2023-08-21T09:28:50;33.20;96.70
45115;DHT22;30877;43.706;10.780;2023-08-21T09:31:22;33.30;96.70
45115;DHT22;30877;43.706;10.780;2023-08-21T09:33:58;33.40;96.70
45115;DHT22;30877;43.706;10.780;2023-08-21T09:36:27;33.20;96.70
45115;DHT22;30877;43.706;10.780;2023-08-21T09:38:56;33.40;96.70
45115;DHT22;30877;43.706;10.780;2023-08-21T09:41:24;33.70;96.70
45115;DHT22;30877;43.706;10.780;2023-08-21T09:43:53;33.90;96.70
45115;DHT22;30877;43.706;10.780;2023-08-21T09:46:27;34.00;96.70
45115;DHT22;30877;43.706;10.780;2023-08-21T09:48:56;34.10;96.70
45115;DHT22;30877;43.706;10.780;2023-08-21T09:51:24;34.20;96.70
45115;DHT22;30877;43.706;10.780;2023-08-21T09:53:56;34.20;96.70
45115;DHT22;30877;43.706;10.780;2023-08-21T09:56:25;34.10;96.70
45115;DHT22;30877;43.706;10.780;2023-08-21T09:58:54;34.40;96.70
45115;DHT22;30877;43.706;10.780;2023-08-21T10:01:22;34.40;96.70
45115;DHT22;30877;43.706;10.780;2023-08-21T10:03:54;34.40;96.70
45115;DHT22;30877;43.706;10.780;2023-08-21T10:06:24;34.40;96.70
45115;DHT22;30877;43.706;10.780;2023-08-21T10:08:54;34.50;96.70
45115;DHT22;30877;43.706;10.780;2023-08-21T10:11:24;34.60;96.70
45115;DHT22;30877;43.706;10.780;2023-08-21T10:13:52;34.60;96.70
45115;DHT22;30877;43.706;10.780;2023-08-21T10:16:20;34.60;96.70
45115;DHT22;30877;43.706;10.780;2023-08-21T10:18:50;34.70;96.70
45115;DHT22;30877;43.706;10.780;2023-08-21T10:21:20;35.00;96.70
45115;DHT22;30877;43.706;10.780;2023-08-21T10:23:49;35.20;96.70
45115;DHT22;30877;43.706;10.780;2023-08-21T10:26:19;35.20;96.70
45115;DHT22;30877;43.706;10.780;2023-08-21T10:28:54;35.10;96.70
45115;DHT22;30877;43.706;10.780;2023-08-21T10:31:33;35.30;96.70
45115;DHT22;30877;43.706;10.780;2023-08-21T10:34:03;35.40;96.70
45115;DHT22;30877;43.706;10.780;2023-08-21T10:39:38;35.50;96.70
45115;DHT22;30877;43.706;10.780;2023-08-21T10:42:09;35.70;96.70
45115;DHT22;30877;43.706;10.780;2023-08-21T10:44:52;35.60;96.70
45115;DHT22;30877;43.706;10.780;2023-08-21T10:47:21;35.50;96.70
45115;DHT22;30877;43.706;10.780;2023-08-21T10:49:52;35.50;96.70
45115;DHT22;30877;43.706;10.780;2023-08-21T10:52:22;35.60;96.70
45115;DHT22;30877;43.706;10.780;2023-08-21T10:54:52;35.60;96.70
45115;DHT22;30877;43.706;10.780;2023-08-21T10:57:21;35.70;96.70
45115;DHT22;30877;43.706;10.780;2023-08-21T10:59:55;35.80;96.70
45115;DHT22;30877;43.706;10.780;2023-08-21T11:02:24;36.00;96.70
45115;DHT22;30877;43.706;10.780;2023-08-21T11:04:52;35.90;96.70
45115;DHT22;30877;43.706;10.780;2023-08-21T11:07:20;35.80;96.70
45115;DHT22;30877;43.706;10.780;2023-08-21T11:09:49;35.80;96.70
45115;DHT22;30877;43.706;10.780;2023-08-21T11:12:19;36.30;96.70
45115;DHT22;30877;43.706;10.780;2023-08-21T11:14:48;36.20;96.70
45115;DHT22;30877;43.706;10.780;2023-08-21T11:17:18;36.30;96.70
45115;DHT22;30877;43.706;10.780;2023-08-21T11:19:51;36.20;96.70
45115;DHT22;30877;43.706;10.780;2023-08-21T11:22:19;36.40;96.70
45115;DHT22;30877;43.706;10.780;2023-08-21T11:24:48;36.80;96.70
45115;DHT22;30877;43.706;10.780;2023-08-21T11:27:17;37.00;96.70
45115;DHT22;30877;43.706;10.780;2023-08-21T11:29:47;37.00;96.70
45115;DHT22;30877;43.706;10.780;2023-08-21T11:32:19;37.00;96.70
45115;DHT22;30877;43.706;10.780;2023-08-21T11:34:51;37.00;96.70
45115;DHT22;30877;43.706;10.780;2023-08-21T11:37:21;37.10;96.70
45115;DHT22;30877;43.706;10.780;2023-08-21T11:39:50;37.30;96.70
45115;DHT22;30877;43.706;10.780;2023-08-21T11:42:29;37.30;96.70
45115;DHT22;30877;43.706;10.780;2023-08-21T11:44:58;37.40;96.70
45115;DHT22;30877;43.706;10.780;2023-08-21T11:47:31;37.40;96.70
45115;DHT22;30877;43.706;10.780;2023-08-21T11:50:03;37.10;96.70
45115;DHT22;30877;43.706;10.780;2023-08-21T11:52:32;36.90;96.70
45115;DHT22;30877;43.706;10.780;2023-08-21T11:55:01;37.00;96.70
45115;DHT22;30877;43.706;10.780;2023-08-21T11:57:28;37.10;96.70
45115;DHT22;30877;43.706;10.780;2023-08-21T11:59:57;37.00;96.70
45115;DHT22;30877;43.706;10.780;2023-08-21T12:02:28;36.90;96.70
45115;DHT22;30877;43.706;10.780;2023-08-21T12:05:01;36.90;96.70
45115;DHT22;30877;43.706;10.780;2023-08-21T12:07:31;36.80;96.70
45115;DHT22;30877;43.706;10.780;2023-08-21T12:09:59;36.90;96.70
45115;DHT22;30877;43.706;10.780;2023-08-21T12:12:27;36.90;96.70
45115;DHT22;30877;43.706;10.780;2023-08-21T12:14:55;37.00;96.70
45115;DHT22;30877;43.706;10.780;2023-08-21T12:17:23;37.20;96.70
45115;DHT22;30877;43.706;10.780;2023-08-21T12:19:52;37.10;96.70
45115;DHT22;30877;43.706;10.780;2023-08-21T12:22:20;37.10;96.70
45115;DHT22;30877;43.706;10.780;2023-08-21T12:24:48;37.20;96.70
45115;DHT22;30877;43.706;10.780;2023-08-21T12:27:16;37.30;96.70
45115;DHT22;30877;43.706;10.780;2023-08-21T12:29:44;37.30;96.70
45115;DHT22;30877;43.706;10.780;2023-08-21T12:32:15;37.40;96.70
45115;DHT22;30877;43.706;10.780;2023-08-21T12:34:43;37.30;96.50
45115;DHT22;30877;43.706;10.780;2023-08-21T12:37:12;37.50;96.50
45115;DHT22;30877;43.706;10.780;2023-08-21T12:39:43;37.70;95.70
45115;DHT22;30877;43.706;10.780;2023-08-21T12:42:11;37.70;95.00
45115;DHT22;30877;43.706;10.780;2023-08-21T12:44:39;37.40;95.50
45115;DHT22;30877;43.706;10.780;2023-08-21T12:47:07;37.40;96.10
45115;DHT22;30877;43.706;10.780;2023-08-21T12:49:36;37.50;96.50
45115;DHT22;30877;43.706;10.780;2023-08-21T12:52:04;37.70;95.90
45115;DHT22;30877;43.706;10.780;2023-08-21T12:54:38;37.90;95.70
45115;DHT22;30877;43.706;10.780;2023-08-21T12:57:07;37.90;95.50
45115;DHT22;30877;43.706;10.780;2023-08-21T12:59:35;37.80;95.90
45115;DHT22;30877;43.706;10.780;2023-08-21T13:02:03;37.90;95.60
45115;DHT22;30877;43.706;10.780;2023-08-21T13:04:33;37.80;94.20
45115;DHT22;30877;43.706;10.780;2023-08-21T13:07:01;37.80;94.60
45115;DHT22;30877;43.706;10.780;2023-08-21T13:09:31;37.90;93.80
45115;DHT22;30877;43.706;10.780;2023-08-21T13:12:00;37.90;94.20
45115;DHT22;30877;43.706;10.780;2023-08-21T13:14:28;37.90;94.30
45115;DHT22;30877;43.706;10.780;2023-08-21T13:16:59;38.00;94.80
45115;DHT22;30877;43.706;10.780;2023-08-21T13:19:27;38.10;92.60
45115;DHT22;30877;43.706;10.780;2023-08-21T13:21:55;38.20;92.40
45115;DHT22;30877;43.706;10.780;2023-08-21T13:24:23;38.10;92.90
45115;DHT22;30877;43.706;10.780;2023-08-21T13:26:50;38.30;92.40
45115;DHT22;30877;43.706;10.780;2023-08-21T13:29:21;38.40;92.20
45115;DHT22;30877;43.706;10.780;2023-08-21T13:31:49;38.40;93.00
45115;DHT22;30877;43.706;10.780;2023-08-21T13:34:16;38.30;92.30
45115;DHT22;30877;43.706;10.780;2023-08-21T13:36:46;38.50;92.90
45115;DHT22;30877;43.706;10.780;2023-08-21T13:39:14;38.60;92.30
45115;DHT22;30877;43.706;10.780;2023-08-21T13:41:43;38.60;92.40
45115;DHT22;30877;43.706;10.780;2023-08-21T13:44:11;39.00;92.90
45115;DHT22;30877;43.706;10.780;2023-08-21T13:46:40;38.90;91.00
45115;DHT22;30877;43.706;10.780;2023-08-21T13:49:09;39.00;91.30
45115;DHT22;30877;43.706;10.780;2023-08-21T13:51:37;38.90;91.20
45115;DHT22;30877;43.706;10.780;2023-08-21T13:54:05;39.20;91.70
45115;DHT22;30877;43.706;10.780;2023-08-21T13:56:35;39.20;90.40
45115;DHT22;30877;43.706;10.780;2023-08-21T13:59:03;39.50;90.80
45115;DHT22;30877;43.706;10.780;2023-08-21T14:01:31;39.70;90.30
45115;DHT22;30877;43.706;10.780;2023-08-21T14:04:00;40.00;90.20
45115;DHT22;30877;43.706;10.780;2023-08-21T14:06:31;40.30;90.10
45115;DHT22;30877;43.706;10.780;2023-08-21T14:08:59;40.00;89.90
45115;DHT22;30877;43.706;10.780;2023-08-21T14:11:26;39.80;90.60
45115;DHT22;30877;43.706;10.780;2023-08-21T14:13:54;39.90;90.30
45115;DHT22;30877;43.706;10.780;2023-08-21T14:16:22;40.30;90.10
45115;DHT22;30877;43.706;10.780;2023-08-21T14:18:50;40.60;89.50
45115;DHT22;30877;43.706;10.780;2023-08-21T14:21:22;40.90;88.90
45115;DHT22;30877;43.706;10.780;2023-08-21T14:23:49;41.00;88.90
45115;DHT22;30877;43.706;10.780;2023-08-21T14:26:17;41.30;89.00
45115;DHT22;30877;43.706;10.780;2023-08-21T14:28:45;41.30;88.30
45115;DHT22;30877;43.706;10.780;2023-08-21T14:31:18;41.60;88.30
45115;DHT22;30877;43.706;10.780;2023-08-21T14:33:46;41.80;88.10
45115;DHT22;30877;43.706;10.780;2023-08-21T14:36:14;41.70;87.50
45115;DHT22;30877;43.706;10.780;2023-08-21T14:38:44;41.60;87.80
45115;DHT22;30877;43.706;10.780;2023-08-21T14:41:12;41.80;87.40
45115;DHT22;30877;43.706;10.780;2023-08-21T14:43:39;42.00;87.60
45115;DHT22;30877;43.706;10.780;2023-08-21T14:46:07;42.00;87.70
45115;DHT22;30877;43.706;10.780;2023-08-21T14:48:35;41.80;88.00
45115;DHT22;30877;43.706;10.780;2023-08-21T14:51:08;41.60;87.50
45115;DHT22;30877;43.706;10.780;2023-08-21T14:53:36;41.30;87.80
45115;DHT22;30877;43.706;10.780;2023-08-21T14:56:06;41.40;87.90
45115;DHT22;30877;43.706;10.780;2023-08-21T14:58:34;41.40;87.90
45115;DHT22;30877;43.706;10.780;2023-08-21T15:01:02;41.50;87.60
45115;DHT22;30877;43.706;10.780;2023-08-21T15:03:30;41.80;87.80
45115;DHT22;30877;43.706;10.780;2023-08-21T15:05:58;42.20;87.10
45115;DHT22;30877;43.706;10.780;2023-08-21T15:08:27;41.90;87.30
45115;DHT22;30877;43.706;10.780;2023-08-21T15:10:55;42.00;87.60
45115;DHT22;30877;43.706;10.780;2023-08-21T15:13:25;42.50;87.20
45115;DHT22;30877;43.706;10.780;2023-08-21T15:15:53;42.30;86.60
45115;DHT22;30877;43.706;10.780;2023-08-21T15:18:22;42.50;87.20
45115;DHT22;30877;43.706;10.780;2023-08-21T15:20:52;42.40;87.00
45115;DHT22;30877;43.706;10.780;2023-08-21T15:23:20;42.70;87.10
45115;DHT22;30877;43.706;10.780;2023-08-21T15:25:58;42.60;86.70
45115;DHT22;30877;43.706;10.780;2023-08-21T15:28:31;42.50;86.50
45115;DHT22;30877;43.706;10.780;2023-08-21T15:30:59;42.60;86.30